createdAt,value
2022-08-22T00:00:33.925Z,2.00
2022-08-22T00:02:45.889Z,2.00
2022-08-22T00:05:27.218Z,1.98
2022-08-22T00:10:25.539Z,2.62
2022-08-22T00:14:58.563Z,2.08
2022-08-22T00:19:42.148Z,2.30
2022-08-22T00:28:30.480Z,2.05
2022-08-22T00:33:01.879Z,2.08
2022-08-22T00:37:26.240Z,2.15
2022-08-22T00:41:56.230Z,2.50
2022-08-22T00:46:38.508Z,2.60
2022-08-22T00:51:23.313Z,2.42
2022-08-22T00:56:03.058Z,1.90
2022-08-22T01:00:30.606Z,1.80
2022-08-22T01:05:09.980Z,2.00
2022-08-22T01:09:38.087Z,2.42
2022-08-22T01:14:42.313Z,2.00
2022-08-22T01:19:10.175Z,1.80
2022-08-22T01:23:45.239Z,1.70
2022-08-22T01:28:36.419Z,2.20
2022-08-22T01:33:13.944Z,2.00
2022-08-22T01:37:47.836Z,1.92
2022-08-22T01:42:16.294Z,2.05
2022-08-22T01:46:52.281Z,2.05
2022-08-22T01:51:23.470Z,2.28
2022-08-22T01:55:53.860Z,2.33
2022-08-22T02:00:16.422Z,2.45
2022-08-22T02:04:48.584Z,1.95
2022-08-22T02:09:23.440Z,2.30
2022-08-22T02:13:57.234Z,2.42
2022-08-22T02:18:26.083Z,2.47
2022-08-22T02:23:00.996Z,2.80
2022-08-22T02:27:31.714Z,2.87
2022-08-22T02:31:56.293Z,2.67
2022-08-22T02:36:42.186Z,2.65
2022-08-22T02:41:16.109Z,2.72
2022-08-22T02:45:57.459Z,2.70
2022-08-22T02:50:23.662Z,2.83
2022-08-22T02:54:48.882Z,2.92
2022-08-22T02:59:37.535Z,2.90
2022-08-22T03:04:13.973Z,3.08
2022-08-22T03:08:36.198Z,3.30
2022-08-22T03:13:07.408Z,3.67
2022-08-22T03:17:29.358Z,3.85
2022-08-22T03:21:52.826Z,3.50
2022-08-22T03:26:26.818Z,4.30
2022-08-22T03:30:56.831Z,4.12
2022-08-22T03:35:23.011Z,4.50
2022-08-22T03:39:45.230Z,4.95
2022-08-22T03:44:20.063Z,4.43
2022-08-22T03:48:51.445Z,5.43
2022-08-22T03:53:41.078Z,5.72
2022-08-22T03:58:27.347Z,5.82
2022-08-22T04:02:50.604Z,5.57
2022-08-22T04:07:33.402Z,5.40
2022-08-22T04:12:08.566Z,5.25
2022-08-22T04:16:45.822Z,5.32
2022-08-22T04:21:29.579Z,6.28
2022-08-22T04:25:53.555Z,5.32
2022-08-22T04:30:25.473Z,5.60
2022-08-22T04:34:53.431Z,5.03
2022-08-22T04:39:13.179Z,5.70
2022-08-22T04:43:38.696Z,4.95
2022-08-22T04:48:00.602Z,5.80
2022-08-22T04:52:32.089Z,5.53
2022-08-22T04:57:32.227Z,5.25
2022-08-22T05:01:57.114Z,5.80
2022-08-22T05:06:15.970Z,5.25
2022-08-22T05:10:37.712Z,6.20
2022-08-22T05:15:02.907Z,4.90
2022-08-22T05:19:36.052Z,6.55
2022-08-22T05:24:28.085Z,7.47
2022-08-22T05:28:53.110Z,8.50
2022-08-22T05:33:27.183Z,7.62
2022-08-22T05:37:50.283Z,7.90
2022-08-22T05:42:12.269Z,6.57
2022-08-22T05:46:43.596Z,7.25
2022-08-22T05:51:25.491Z,7.07
2022-08-22T05:55:52.822Z,7.00
2022-08-22T06:00:13.161Z,6.90
2022-08-22T06:04:47.829Z,7.80
2022-08-22T06:09:06.892Z,6.97
2022-08-22T06:13:47.387Z,6.87
2022-08-22T06:18:10.545Z,6.07
2022-08-22T06:22:30.054Z,6.45
2022-08-22T06:26:49.703Z,6.15
2022-08-22T06:31:08.248Z,5.87
2022-08-22T06:35:26.888Z,5.70
2022-08-22T06:39:45.341Z,6.10
2022-08-22T06:44:02.178Z,6.45
2022-08-22T06:48:21.878Z,6.30
2022-08-22T06:53:11.779Z,6.30
2022-08-22T06:57:33.430Z,5.95
2022-08-22T07:02:23.288Z,6.65
2022-08-22T07:06:44.700Z,6.60
2022-08-22T07:11:23.640Z,7.80
2022-08-22T07:15:43.237Z,6.20
2022-08-22T07:20:32.096Z,6.28
2022-08-22T07:24:52.365Z,6.40
2022-08-22T07:29:28.174Z,5.72
2022-08-22T07:33:48.394Z,5.55
2022-08-22T07:38:42.940Z,5.80
2022-08-22T07:43:04.467Z,5.28
2022-08-22T07:47:26.621Z,6.00
2022-08-22T07:52:06.048Z,5.90
2022-08-22T07:56:30.303Z,6.60
2022-08-22T08:00:46.972Z,6.78
2022-08-22T08:05:03.200Z,5.97
2022-08-22T08:09:19.954Z,6.47
2022-08-22T08:13:40.189Z,5.90
2022-08-22T08:18:00.622Z,6.45
2022-08-22T08:22:20.272Z,5.87
2022-08-22T08:27:09.527Z,6.10
2022-08-22T08:31:43.063Z,5.75
2022-08-22T08:36:05.483Z,5.80
2022-08-22T08:40:33.283Z,6.12
2022-08-22T08:44:58.897Z,6.03
2022-08-22T08:49:33.755Z,5.87
2022-08-22T08:54:23.923Z,6.43
2022-08-22T08:58:52.578Z,6.47
2022-08-22T09:03:30.781Z,6.18
2022-08-22T09:08:21.306Z,6.05
2022-08-22T09:13:12.094Z,5.80
2022-08-22T09:17:37.429Z,5.22
2022-08-22T09:22:33.546Z,6.45
2022-08-22T09:27:16.234Z,5.97
2022-08-22T09:31:47.691Z,5.90
2022-08-22T09:36:26.123Z,5.53
2022-08-22T09:40:56.743Z,5.72
2022-08-22T09:45:36.648Z,6.15
2022-08-22T09:50:09.863Z,5.35
2022-08-22T09:54:45.905Z,6.12
2022-08-22T09:59:12.324Z,5.43
2022-08-22T10:04:12.783Z,5.82
2022-08-22T10:08:47.140Z,5.80
2022-08-22T10:13:34.123Z,6.05
2022-08-22T10:18:26.176Z,5.87
2022-08-22T10:22:51.384Z,5.50
2022-08-22T10:27:18.712Z,6.37
2022-08-22T10:31:35.601Z,5.62
2022-08-22T10:36:20.987Z,6.25
2022-08-22T10:40:59.168Z,5.82
2022-08-22T10:45:35.756Z,6.20
2022-08-22T10:49:56.869Z,5.82
2022-08-22T10:54:27.163Z,6.03
2022-08-22T10:58:55.033Z,5.62
2022-08-22T11:03:41.629Z,5.55
2022-08-22T11:08:23.154Z,4.95
2022-08-22T11:12:48.709Z,5.57
2022-08-22T11:17:30.304Z,5.22
2022-08-22T11:26:30.109Z,7.28
2022-08-22T11:31:16.408Z,6.28
2022-08-22T11:35:36.634Z,6.30
2022-08-22T11:40:21.249Z,6.20
2022-08-22T11:49:25.780Z,5.93
2022-08-22T11:53:48.319Z,4.97
2022-08-22T11:58:33.187Z,5.57
2022-08-22T12:03:01.744Z,5.95
2022-08-22T12:07:30.501Z,5.18
2022-08-22T12:12:10.782Z,5.32
2022-08-22T12:16:26.783Z,5.50
2022-08-22T12:21:21.443Z,5.50
2022-08-22T12:25:56.278Z,5.95
2022-08-22T12:30:19.011Z,5.10
2022-08-22T12:34:46.678Z,5.30
2022-08-22T12:39:41.198Z,5.50
2022-08-22T12:44:09.155Z,5.07
2022-08-22T12:48:59.797Z,5.43
2022-08-22T12:53:40.069Z,5.00
2022-08-22T12:58:14.738Z,5.25
2022-08-22T13:02:36.161Z,5.12
2022-08-22T13:06:56.154Z,4.80
2022-08-22T13:11:22.326Z,5.05
2022-08-22T13:15:42.734Z,5.80
2022-08-22T13:20:28.573Z,5.30
2022-08-22T13:24:56.860Z,5.70
2022-08-22T13:29:27.109Z,5.72
2022-08-22T13:33:47.937Z,5.55
2022-08-22T13:38:26.120Z,5.95
2022-08-22T13:42:48.453Z,6.47
2022-08-22T13:47:14.513Z,6.33
2022-08-22T13:51:55.512Z,6.53
2022-08-22T13:56:26.260Z,6.40
2022-08-22T14:01:03.965Z,5.82
2022-08-22T14:05:44.669Z,5.78
2022-08-22T14:10:14.789Z,5.50
2022-08-22T14:14:33.820Z,4.45
2022-08-22T14:18:54.875Z,4.00
2022-08-22T14:23:29.589Z,3.53
2022-08-22T14:27:52.693Z,3.45
2022-08-22T14:32:35.079Z,3.35
2022-08-22T14:37:18.609Z,4.93
2022-08-22T14:46:18.878Z,4.25
2022-08-22T14:50:38.659Z,3.90
2022-08-22T14:55:09.551Z,3.45
2022-08-22T14:59:50.715Z,4.12
2022-08-22T15:04:14.650Z,3.90
2022-08-22T15:08:34.875Z,4.53
2022-08-22T15:12:54.323Z,4.30
2022-08-22T15:17:11.150Z,4.60
2022-08-22T15:21:33.140Z,4.62
2022-08-22T15:26:05.462Z,4.40
2022-08-22T15:30:37.091Z,4.50
2022-08-22T15:35:02.479Z,4.32
2022-08-22T15:39:35.127Z,4.47
2022-08-22T15:44:31.140Z,3.70
2022-08-22T15:48:58.003Z,3.70
2022-08-22T15:53:26.566Z,3.85
2022-08-22T15:57:50.930Z,3.45
2022-08-22T16:02:22.770Z,3.95
2022-08-22T16:06:51.355Z,4.35
2022-08-22T16:11:33.419Z,4.45
2022-08-22T16:15:54.377Z,4.47
2022-08-22T16:20:19.530Z,4.05
2022-08-22T16:24:57.960Z,3.87
2022-08-22T16:29:20.570Z,4.32
2022-08-22T16:33:39.565Z,4.40
2022-08-22T16:37:55.784Z,3.78
2022-08-22T16:42:22.576Z,4.12
2022-08-22T16:46:42.075Z,3.45
2022-08-22T16:51:21.565Z,3.55
2022-08-22T16:55:47.037Z,3.28
2022-08-22T17:00:13.488Z,3.28
2022-08-22T17:05:00.129Z,3.78
2022-08-22T17:09:32.420Z,3.85
2022-08-22T17:13:48.595Z,3.47
2022-08-22T17:18:45.218Z,3.45
2022-08-22T17:23:23.887Z,1.95
2022-08-22T17:27:43.584Z,2.15
2022-08-22T17:32:37.906Z,2.17
2022-08-22T17:37:13.986Z,2.12
2022-08-22T17:41:49.943Z,1.52
2022-08-22T17:46:14.436Z,1.67
2022-08-22T17:50:57.266Z,1.98
2022-08-22T17:55:28.274Z,1.58
2022-08-22T18:00:15.865Z,1.95
2022-08-22T18:05:03.594Z,2.00
2022-08-22T18:09:35.170Z,2.00
2022-08-22T18:13:57.273Z,2.20
2022-08-22T18:18:19.768Z,2.70
2022-08-22T18:22:53.793Z,2.20
2022-08-22T18:27:34.198Z,2.78
2022-08-22T18:32:12.810Z,2.40
2022-08-22T18:36:33.066Z,2.55
2022-08-22T18:41:18.291Z,2.42
2022-08-22T18:45:46.529Z,2.35
2022-08-22T18:50:32.889Z,1.87
2022-08-22T18:55:04.294Z,1.70
2022-08-22T18:59:30.303Z,2.00
2022-08-22T19:04:09.757Z,1.55
2022-08-22T19:09:04.149Z,1.80
2022-08-22T19:13:56.368Z,1.80
2022-08-22T19:18:21.711Z,1.80
2022-08-22T19:22:38.006Z,1.77
2022-08-22T19:27:18.192Z,2.12
2022-08-22T19:31:39.990Z,2.15
2022-08-22T19:35:56.552Z,1.77
2022-08-22T19:40:34.007Z,2.08
2022-08-22T19:44:56.134Z,1.70
2022-08-22T19:49:37.275Z,2.08
2022-08-22T19:54:18.407Z,2.00
2022-08-22T19:58:52.738Z,1.87
2022-08-22T20:03:13.039Z,2.08
2022-08-22T20:07:42.373Z,2.10
2022-08-22T20:12:09.216Z,2.17
2022-08-22T20:17:05.583Z,2.20
2022-08-22T20:25:57.549Z,2.53
2022-08-22T20:30:16.378Z,2.25
2022-08-22T20:34:37.039Z,2.50
2022-08-22T20:38:57.793Z,3.03
2022-08-22T20:43:33.123Z,3.72
2022-08-22T20:47:50.620Z,3.95
2022-08-22T20:52:30.885Z,5.12
2022-08-22T20:56:57.742Z,5.93
2022-08-22T21:01:14.321Z,6.37
2022-08-22T21:05:45.222Z,6.50
2022-08-22T21:10:42.113Z,6.22
2022-08-22T21:14:58.283Z,5.47
2022-08-22T21:19:25.452Z,4.10
2022-08-22T21:23:43.812Z,4.28
2022-08-22T21:28:00.900Z,4.75
2022-08-22T21:32:38.350Z,4.53
2022-08-22T21:36:58.706Z,4.87
2022-08-22T21:41:19.333Z,5.28
2022-08-22T21:45:37.895Z,4.90
2022-08-22T21:50:08.476Z,4.95
2022-08-22T21:54:30.376Z,4.75
2022-08-22T21:58:46.472Z,5.00
2022-08-22T22:03:02.935Z,7.68
2022-08-22T22:07:19.309Z,7.40
2022-08-22T22:11:35.360Z,7.47
2022-08-22T22:15:52.997Z,9.02
2022-08-22T22:20:09.821Z,8.80
2022-08-22T22:24:25.816Z,9.32
2022-08-22T22:28:44.556Z,8.00
2022-08-22T22:33:00.920Z,8.13
2022-08-22T22:37:17.069Z,8.80
2022-08-22T22:41:33.326Z,8.20
2022-08-22T22:45:49.798Z,7.87
2022-08-22T22:50:07.266Z,7.85
2022-08-22T22:54:27.470Z,8.60
2022-08-22T22:58:47.459Z,7.80
2022-08-22T23:03:06.505Z,8.15
2022-08-22T23:07:26.940Z,7.90
2022-08-22T23:11:43.618Z,8.05
2022-08-22T23:15:59.599Z,7.57
2022-08-22T23:20:15.708Z,7.65
2022-08-22T23:24:32.018Z,10.10
2022-08-22T23:28:48.001Z,8.13
2022-08-22T23:33:04.031Z,7.32
2022-08-22T23:37:22.764Z,7.05
2022-08-22T23:41:39.220Z,6.95
2022-08-22T23:45:55.222Z,6.47
2022-08-22T23:50:11.395Z,6.28
2022-08-22T23:54:27.858Z,6.78
2022-08-22T23:58:44.589Z,6.35
